createdAt,value
2023-03-18T00:01:31.213Z,6.43
2023-03-18T00:06:13.746Z,5.47
2023-03-18T00:10:35.391Z,6.40
2023-03-18T00:14:53.741Z,5.43
2023-03-18T00:19:11.611Z,4.27
2023-03-18T00:23:29.849Z,5.70
2023-03-18T00:27:48.680Z,5.25
2023-03-18T00:32:09.316Z,6.57
2023-03-18T00:36:30.561Z,4.88
2023-03-18T00:41:04.381Z,5.80
2023-03-18T00:45:26.189Z,6.90
2023-03-18T00:49:45.071Z,5.82
2023-03-18T00:54:07.324Z,4.30
2023-03-18T00:58:27.464Z,5.53
2023-03-18T01:03:01.029Z,5.72
2023-03-18T01:07:25.308Z,4.13
2023-03-18T01:11:43.146Z,4.35
2023-03-18T01:16:01.779Z,4.30
2023-03-18T01:20:21.711Z,5.22
2023-03-18T01:24:43.388Z,4.47
2023-03-18T01:29:01.383Z,4.20
2023-03-18T01:33:24.358Z,5.60
2023-03-18T01:37:47.302Z,5.07
2023-03-18T01:42:09.420Z,6.33
2023-03-18T01:46:42.037Z,4.68
2023-03-18T01:51:08.018Z,3.95
2023-03-18T01:55:32.573Z,4.13
2023-03-18T01:59:54.317Z,4.43
2023-03-18T02:04:17.437Z,5.90
2023-03-18T02:08:36.612Z,5.03
2023-03-18T02:13:00.582Z,4.80
2023-03-18T02:17:28.018Z,4.95
2023-03-18T02:21:54.063Z,4.55
2023-03-18T02:26:22.858Z,4.10
2023-03-18T02:30:47.638Z,4.13
2023-03-18T02:35:11.749Z,3.63
2023-03-18T02:39:32.289Z,3.85
2023-03-18T02:43:51.954Z,4.93
2023-03-18T02:48:16.312Z,3.90
2023-03-18T02:52:35.453Z,3.17
2023-03-18T02:56:53.630Z,5.00
2023-03-18T03:01:11.711Z,5.90
2023-03-18T03:05:31.475Z,5.18
2023-03-18T03:09:50.923Z,4.10
2023-03-18T03:14:13.449Z,4.47
2023-03-18T03:18:32.957Z,4.07
2023-03-18T03:22:53.417Z,3.72
2023-03-18T03:27:12.530Z,4.23
2023-03-18T03:31:30.189Z,3.80
2023-03-18T03:35:48.490Z,4.05
2023-03-18T03:40:09.077Z,4.60
2023-03-18T03:44:27.411Z,3.85
2023-03-18T03:48:45.431Z,5.80
2023-03-18T03:53:07.446Z,4.63
2023-03-18T03:57:26.451Z,5.00
2023-03-18T04:01:46.387Z,5.22
2023-03-18T04:06:04.595Z,4.40
2023-03-18T04:10:26.573Z,5.30
2023-03-18T04:14:49.584Z,5.53
2023-03-18T04:19:10.323Z,4.15
2023-03-18T04:23:28.628Z,3.70
2023-03-18T04:27:49.578Z,3.72
2023-03-18T04:32:09.285Z,4.30
2023-03-18T04:36:29.332Z,4.40
2023-03-18T04:40:46.847Z,4.15
2023-03-18T04:45:05.574Z,3.65
2023-03-18T04:49:27.270Z,4.53
2023-03-18T04:53:46.961Z,5.27
2023-03-18T04:58:05.852Z,3.72
2023-03-18T05:02:29.884Z,4.60
2023-03-18T05:06:52.258Z,4.40
2023-03-18T05:11:15.027Z,5.25
2023-03-18T05:15:33.223Z,3.83
2023-03-18T05:19:51.674Z,5.13
2023-03-18T05:24:13.362Z,5.03
2023-03-18T05:28:34.088Z,4.28
2023-03-18T05:33:03.564Z,4.82
2023-03-18T05:37:40.262Z,4.37
2023-03-18T05:42:02.659Z,4.50
2023-03-18T05:46:22.885Z,3.78
2023-03-18T05:51:07.751Z,4.70
2023-03-18T05:55:29.491Z,4.80
2023-03-18T05:59:48.523Z,4.63
2023-03-18T06:04:10.275Z,4.80
2023-03-18T06:08:29.531Z,4.15
2023-03-18T06:12:47.860Z,4.82
2023-03-18T06:17:10.009Z,5.00
2023-03-18T06:21:31.651Z,4.80
2023-03-18T06:25:51.091Z,4.03
2023-03-18T06:30:13.335Z,3.42
2023-03-18T06:34:34.972Z,4.73
2023-03-18T06:38:54.320Z,3.17
2023-03-18T06:43:15.917Z,4.78
2023-03-18T06:47:37.135Z,5.20
2023-03-18T06:51:58.909Z,3.95
2023-03-18T06:56:18.435Z,5.35
2023-03-18T07:00:58.050Z,5.15
2023-03-18T07:05:23.083Z,3.70
2023-03-18T07:09:41.838Z,5.38
2023-03-18T07:14:02.028Z,4.88
2023-03-18T07:18:25.685Z,4.40
2023-03-18T07:22:44.585Z,4.50
2023-03-18T07:27:04.407Z,4.65
2023-03-18T07:31:26.407Z,5.20
2023-03-18T07:35:44.197Z,4.82
2023-03-18T07:40:01.950Z,4.13
2023-03-18T07:44:21.416Z,3.40
2023-03-18T07:48:41.323Z,4.07
2023-03-18T07:52:59.806Z,5.63
2023-03-18T07:57:17.585Z,5.22
2023-03-18T08:01:36.745Z,5.27
2023-03-18T08:05:57.426Z,5.40
2023-03-18T08:10:15.103Z,5.25
2023-03-18T08:14:32.708Z,5.03
2023-03-18T08:18:54.744Z,4.70
2023-03-18T08:23:13.068Z,5.60
2023-03-18T08:27:33.111Z,5.70
2023-03-18T08:31:51.392Z,5.17
2023-03-18T08:36:12.192Z,5.63
2023-03-18T08:40:30.280Z,5.15
2023-03-18T08:44:48.942Z,5.30
2023-03-18T08:49:07.882Z,4.63
2023-03-18T08:53:28.724Z,5.30
2023-03-18T08:57:50.087Z,5.30
2023-03-18T09:02:16.949Z,5.15
2023-03-18T09:06:37.070Z,5.32
2023-03-18T09:10:56.793Z,5.10
2023-03-18T09:15:20.737Z,5.13
2023-03-18T09:19:40.983Z,5.43
2023-03-18T09:23:59.170Z,3.17
2023-03-18T09:28:17.919Z,5.83
2023-03-18T09:32:37.883Z,4.60
2023-03-18T09:36:58.722Z,4.57
2023-03-18T09:41:30.112Z,5.93
2023-03-18T09:46:03.178Z,4.80
2023-03-18T09:50:33.572Z,5.88
2023-03-18T09:54:59.220Z,5.13
2023-03-18T09:59:22.737Z,4.07
2023-03-18T10:03:49.357Z,4.93
2023-03-18T10:08:14.825Z,4.47
2023-03-18T10:12:37.971Z,4.73
2023-03-18T10:17:07.168Z,4.60
2023-03-18T10:21:39.101Z,3.60
2023-03-18T10:26:05.892Z,4.37
2023-03-18T10:30:46.348Z,4.10
2023-03-18T10:35:19.936Z,4.38
2023-03-18T10:39:41.409Z,4.80
2023-03-18T10:44:04.558Z,4.63
2023-03-18T10:48:30.161Z,4.95
2023-03-18T10:52:54.192Z,4.50
2023-03-18T10:57:16.924Z,4.57
2023-03-18T11:01:38.600Z,4.90
2023-03-18T11:06:02.476Z,5.15
2023-03-18T11:10:28.358Z,4.47
2023-03-18T11:14:50.775Z,4.22
2023-03-18T11:19:32.162Z,4.72
2023-03-18T11:24:10.559Z,4.60
2023-03-18T11:28:31.140Z,4.37
2023-03-18T11:32:58.635Z,5.30
2023-03-18T11:37:21.470Z,4.97
2023-03-18T11:41:40.946Z,5.47
2023-03-18T11:46:03.998Z,4.40
2023-03-18T11:50:26.072Z,3.85
2023-03-18T11:55:15.231Z,4.47
2023-03-18T11:59:46.086Z,3.90
2023-03-18T12:04:24.030Z,3.88
2023-03-18T12:09:11.424Z,4.00
2023-03-18T12:13:43.385Z,4.33
2023-03-18T12:18:14.699Z,4.50
2023-03-18T12:23:04.463Z,4.00
2023-03-18T12:27:32.734Z,4.60
2023-03-18T12:32:06.895Z,4.70
2023-03-18T12:36:58.757Z,4.85
2023-03-18T12:41:27.981Z,5.57
2023-03-18T12:45:50.710Z,4.45
2023-03-18T12:50:20.403Z,4.43
2023-03-18T12:54:45.162Z,4.47
2023-03-18T12:59:09.407Z,4.60
2023-03-18T13:03:37.827Z,3.70
2023-03-18T13:08:22.432Z,4.60
2023-03-18T13:12:44.604Z,4.40
2023-03-18T13:17:04.782Z,3.60
2023-03-18T13:21:28.603Z,3.90
2023-03-18T13:26:03.105Z,4.00
2023-03-18T13:30:31.505Z,4.20
2023-03-18T13:35:24.933Z,3.80
2023-03-18T13:40:05.753Z,3.70
2023-03-18T13:44:29.322Z,3.60
2023-03-18T13:48:48.483Z,3.83
2023-03-18T13:53:23.621Z,3.85
2023-03-18T13:57:58.106Z,4.33
2023-03-18T14:02:45.709Z,3.80
2023-03-18T14:07:19.956Z,3.30
2023-03-18T14:11:50.070Z,3.57
2023-03-18T14:16:13.026Z,3.70
2023-03-18T14:20:42.284Z,3.30
2023-03-18T14:25:24.376Z,3.63
2023-03-18T14:29:44.364Z,3.60
2023-03-18T14:34:35.095Z,3.08
2023-03-18T14:39:03.108Z,3.83
2023-03-18T14:43:28.546Z,2.53
2023-03-18T14:47:49.506Z,3.50
2023-03-18T14:52:28.580Z,3.55
2023-03-18T14:56:56.078Z,3.37
2023-03-18T15:01:17.875Z,4.30
2023-03-18T15:05:37.881Z,3.92
2023-03-18T15:09:59.079Z,3.50
2023-03-18T15:14:27.122Z,3.67
2023-03-18T15:18:45.537Z,3.95
2023-03-18T15:23:10.300Z,3.00
2023-03-18T15:27:34.497Z,3.37
2023-03-18T15:31:55.173Z,3.50
2023-03-18T15:36:17.570Z,3.40
2023-03-18T15:40:46.228Z,2.50
2023-03-18T15:45:16.092Z,3.05
2023-03-18T15:49:34.323Z,3.13
2023-03-18T15:53:54.635Z,2.92
2023-03-18T15:58:21.842Z,3.40
2023-03-18T16:02:43.364Z,3.20
2023-03-18T16:07:01.859Z,3.30
2023-03-18T16:11:20.130Z,3.27
2023-03-18T16:15:38.062Z,7.82
2023-03-18T16:19:57.730Z,4.05
2023-03-18T16:24:17.527Z,3.27
2023-03-18T16:28:35.122Z,4.20
2023-03-18T16:32:54.907Z,4.00
2023-03-18T16:37:25.764Z,4.22
2023-03-18T16:41:46.134Z,3.97
2023-03-18T16:46:07.124Z,4.25
2023-03-18T16:50:30.832Z,4.28
2023-03-18T16:54:49.366Z,4.17
2023-03-18T16:59:13.716Z,4.32
2023-03-18T17:03:34.172Z,4.95
2023-03-18T17:07:57.469Z,5.10
2023-03-18T17:12:17.361Z,4.82
2023-03-18T17:16:39.435Z,4.63
2023-03-18T17:20:58.164Z,4.80
2023-03-18T17:25:19.752Z,3.97
2023-03-18T17:29:41.516Z,4.22
2023-03-18T17:34:01.830Z,5.55
2023-03-18T17:38:22.756Z,5.93
2023-03-18T17:42:44.349Z,5.28
2023-03-18T17:47:05.500Z,4.88
2023-03-18T17:51:24.962Z,5.70
2023-03-18T17:55:43.815Z,4.80
2023-03-18T18:00:02.837Z,4.78
2023-03-18T18:04:28.370Z,4.35
2023-03-18T18:08:48.846Z,6.33
2023-03-18T18:13:15.681Z,6.60
2023-03-18T18:17:38.935Z,6.10
2023-03-18T18:22:04.019Z,7.43
2023-03-18T18:26:24.155Z,6.95
2023-03-18T18:30:48.728Z,7.45
2023-03-18T18:35:07.228Z,6.90
2023-03-18T18:39:28.813Z,6.55
2023-03-18T18:43:48.547Z,6.68
2023-03-18T18:48:15.373Z,4.32
2023-03-18T18:52:34.170Z,6.03
2023-03-18T18:56:58.641Z,6.07
2023-03-18T19:01:16.456Z,5.53
2023-03-18T19:05:34.636Z,8.00
2023-03-18T19:09:55.916Z,8.00
2023-03-18T19:14:24.520Z,7.30
2023-03-18T19:18:46.719Z,8.10
2023-03-18T19:23:15.936Z,6.32
2023-03-18T19:27:38.765Z,6.32
2023-03-18T19:32:01.780Z,5.32
2023-03-18T19:36:26.747Z,4.87
2023-03-18T19:40:45.173Z,4.97
2023-03-18T19:45:07.803Z,5.85
2023-03-18T19:49:33.020Z,4.83
2023-03-18T19:53:51.196Z,7.10
2023-03-18T19:58:19.565Z,6.20
2023-03-18T20:02:41.308Z,8.50
2023-03-18T20:07:05.741Z,10.18
2023-03-18T20:11:26.800Z,9.48
2023-03-18T20:15:50.533Z,9.65
2023-03-18T20:20:17.175Z,9.40
2023-03-18T20:24:38.732Z,10.70
2023-03-18T20:29:01.273Z,9.05
2023-03-18T20:33:20.500Z,9.33
2023-03-18T20:37:37.721Z,8.50
2023-03-18T20:41:57.651Z,9.15
2023-03-18T20:46:18.039Z,7.83
2023-03-18T20:50:38.212Z,9.25
2023-03-18T20:54:57.314Z,9.38
2023-03-18T20:59:18.516Z,8.05
2023-03-18T21:03:38.465Z,6.37
2023-03-18T21:07:56.739Z,8.82
2023-03-18T21:12:18.136Z,8.75
2023-03-18T21:16:38.018Z,7.27
2023-03-18T21:20:57.591Z,6.07
2023-03-18T21:25:19.948Z,6.30
2023-03-18T21:29:39.049Z,7.07
2023-03-18T21:33:58.364Z,6.45
2023-03-18T21:38:18.684Z,6.82
2023-03-18T21:42:36.694Z,9.45
2023-03-18T21:46:54.259Z,8.40
2023-03-18T21:51:37.620Z,8.35
2023-03-18T21:55:58.096Z,8.82
2023-03-18T22:00:20.041Z,10.27
2023-03-18T22:04:40.278Z,11.65
2023-03-18T22:09:00.101Z,11.93
2023-03-18T22:13:21.663Z,10.43
2023-03-18T22:17:41.169Z,10.13
2023-03-18T22:21:59.123Z,12.25
2023-03-18T22:26:19.616Z,10.43
2023-03-18T22:30:38.320Z,10.07
2023-03-18T22:34:56.364Z,9.05
2023-03-18T22:39:14.192Z,7.28
2023-03-18T22:43:35.466Z,11.47
2023-03-18T22:47:54.799Z,11.98
2023-03-18T22:52:20.372Z,10.75
2023-03-18T22:56:38.284Z,9.83
2023-03-18T23:00:58.071Z,8.43
2023-03-18T23:05:19.843Z,9.30
2023-03-18T23:09:50.361Z,8.00
2023-03-18T23:14:15.513Z,7.83
2023-03-18T23:18:35.464Z,10.15
2023-03-18T23:22:54.529Z,9.18
2023-03-18T23:27:12.738Z,9.40
2023-03-18T23:31:31.183Z,11.35
2023-03-18T23:35:53.238Z,8.95
2023-03-18T23:40:13.508Z,10.33
2023-03-18T23:44:31.076Z,9.18
2023-03-18T23:48:48.849Z,8.27
2023-03-18T23:53:08.451Z,11.95
2023-03-18T23:57:29.046Z,8.67
